Terminal Aerodrome Forecast
Issued by NWS Raleigh/Durham, NC

Home | Current Version | Previous Version | Text Only | Print | Product List | Glossary On
Versions: 1 2 3 4 5 6 7 8 9 10 11 12 13 14 15 16 17 18 19 20 21 22 23 24 25 26 27 28 29 30 31 32 33 34 35 36 37 38 39 40 41 42
155
FTUS42 KRAH 031732
TAFRDU
TAF
KRDU 031732Z 0318/0418 23007KT P6SM SCT016 BKN035 BKN150
     FM032000 23008KT P6SM VCSH SCT035 BKN200
      TEMPO 0321/0324 27020G40KT 1 1/2SM TSRA SCT020 BKN035CB OVC080
     FM040100 28003KT P6SM VCSH SCT035 SCT250
     FM040700 33005KT P6SM VCSH OVC045
     FM041500 27009KT P6SM SCT050=

USA.gov is the U.S. government's official web portal to all federal, state and local government web resources and services.